Terminal Aerodrome Forecast
Issued by NWS

Home | Current Version | Previous Version | Text Only | Print | Product List | Glossary On
Versions: 1 2 3 4 5 6 7 8 9 10 11 12
000
FTUS41 KPHI 280536
TAFMIV
TAF
KMIV 280536Z 2806/2906 20004KT P6SM SCT250
     FM281000 21004KT 6SM BR SCT050
     FM281300 22006KT P6SM SCT050
     FM281800 21010KT P6SM FEW050
     FM290000 00000KT P6SM SKC=

USA.gov is the U.S. government's official web portal to all federal, state and local government web resources and services.